sensor_id;sensor_type;location;lat;lon;timestamp;temperature;humidity
9265;DHT22;4669;49.594;10.958;2023-09-19T04:25:16;17.30;99.90
9265;DHT22;4669;49.594;10.958;2023-09-19T04:30:18;17.30;99.90
9265;DHT22;4669;49.594;10.958;2023-09-19T04:35:21;17.30;99.90
9265;DHT22;4669;49.594;10.958;2023-09-19T04:40:25;17.30;99.90
9265;DHT22;4669;49.594;10.958;2023-09-19T04:45:28;17.30;99.90
9265;DHT22;4669;49.594;10.958;2023-09-19T04:50:30;17.40;99.90
9265;DHT22;4669;49.594;10.958;2023-09-19T04:55:33;17.40;99.90
9265;DHT22;4669;49.594;10.958;2023-09-19T05:00:35;17.40;99.90
9265;DHT22;4669;49.594;10.958;2023-09-19T05:05:37;17.50;99.90
9265;DHT22;4669;49.594;10.958;2023-09-19T05:10:40;17.50;99.90
9265;DHT22;4669;49.594;10.958;2023-09-19T05:15:43;17.60;99.90
9265;DHT22;4669;49.594;10.958;2023-09-19T05:20:45;17.70;99.90
9265;DHT22;4669;49.594;10.958;2023-09-19T05:25:48;17.70;99.90
9265;DHT22;4669;49.594;10.958;2023-09-19T05:30:50;17.70;99.90
9265;DHT22;4669;49.594;10.958;2023-09-19T05:35:53;17.70;99.90
9265;DHT22;4669;49.594;10.958;2023-09-19T05:40:56;17.70;99.90
9265;DHT22;4669;49.594;10.958;2023-09-19T05:46:00;17.80;99.90
9265;DHT22;4669;49.594;10.958;2023-09-19T05:51:01;17.70;99.90
9265;DHT22;4669;49.594;10.958;2023-09-19T05:56:05;17.70;99.90
9265;DHT22;4669;49.594;10.958;2023-09-19T06:01:07;17.70;99.90
9265;DHT22;4669;49.594;10.958;2023-09-19T06:06:10;17.60;99.90
9265;DHT22;4669;49.594;10.958;2023-09-19T06:11:13;17.60;99.90
9265;DHT22;4669;49.594;10.958;2023-09-19T06:16:15;17.70;99.90
9265;DHT22;4669;49.594;10.958;2023-09-19T06:21:20;17.60;99.90
9265;DHT22;4669;49.594;10.958;2023-09-19T06:26:23;17.60;99.90
9265;DHT22;4669;49.594;10.958;2023-09-19T06:31:27;17.60;99.90
9265;DHT22;4669;49.594;10.958;2023-09-19T06:36:29;17.60;99.90
9265;DHT22;4669;49.594;10.958;2023-09-19T06:41:32;17.60;99.90
9265;DHT22;4669;49.594;10.958;2023-09-19T06:46:39;17.80;99.90
9265;DHT22;4669;49.594;10.958;2023-09-19T06:51:44;17.90;99.90
9265;DHT22;4669;49.594;10.958;2023-09-19T06:56:48;17.90;99.90
9265;DHT22;4669;49.594;10.958;2023-09-19T07:01:50;18.00;99.90
9265;DHT22;4669;49.594;10.958;2023-09-19T07:06:52;18.00;99.90
9265;DHT22;4669;49.594;10.958;2023-09-19T07:11:56;18.10;99.90
9265;DHT22;4669;49.594;10.958;2023-09-19T07:16:57;18.20;99.90
9265;DHT22;4669;49.594;10.958;2023-09-19T07:22:00;18.20;99.90
9265;DHT22;4669;49.594;10.958;2023-09-19T07:27:04;18.10;99.90
9265;DHT22;4669;49.594;10.958;2023-09-19T07:32:06;18.20;99.90
9265;DHT22;4669;49.594;10.958;2023-09-19T07:37:09;18.20;99.90
9265;DHT22;4669;49.594;10.958;2023-09-19T07:42:13;18.10;99.90
9265;DHT22;4669;49.594;10.958;2023-09-19T07:47:18;18.20;99.90
9265;DHT22;4669;49.594;10.958;2023-09-19T07:52:20;18.20;99.90
9265;DHT22;4669;49.594;10.958;2023-09-19T07:57:24;18.20;99.90
9265;DHT22;4669;49.594;10.958;2023-09-19T08:02:27;18.20;99.90
9265;DHT22;4669;49.594;10.958;2023-09-19T08:07:29;18.20;99.90
9265;DHT22;4669;49.594;10.958;2023-09-19T08:12:32;18.20;99.90
9265;DHT22;4669;49.594;10.958;2023-09-19T08:17:36;18.10;99.90
9265;DHT22;4669;49.594;10.958;2023-09-19T08:22:38;18.20;99.90
9265;DHT22;4669;49.594;10.958;2023-09-19T08:27:42;18.30;99.90
9265;DHT22;4669;49.594;10.958;2023-09-19T08:32:44;18.40;99.90
9265;DHT22;4669;49.594;10.958;2023-09-19T08:37:46;18.40;99.70
9265;DHT22;4669;49.594;10.958;2023-09-19T08:42:52;18.50;99.60
9265;DHT22;4669;49.594;10.958;2023-09-19T08:48:04;18.60;99.80
9265;DHT22;4669;49.594;10.958;2023-09-19T08:53:11;18.60;99.80
9265;DHT22;4669;49.594;10.958;2023-09-19T08:58:19;18.80;99.40
9265;DHT22;4669;49.594;10.958;2023-09-19T09:03:22;18.80;98.60
9265;DHT22;4669;49.594;10.958;2023-09-19T09:08:25;18.90;98.80
9265;DHT22;4669;49.594;10.958;2023-09-19T09:13:29;18.90;98.70
9265;DHT22;4669;49.594;10.958;2023-09-19T09:18:31;19.00;99.10
9265;DHT22;4669;49.594;10.958;2023-09-19T09:23:34;19.00;98.40
9265;DHT22;4669;49.594;10.958;2023-09-19T09:28:44;18.90;98.90
9265;DHT22;4669;49.594;10.958;2023-09-19T09:33:52;18.90;99.10
9265;DHT22;4669;49.594;10.958;2023-09-19T09:38:54;18.90;99.00
9265;DHT22;4669;49.594;10.958;2023-09-19T09:44:12;18.90;99.50
9265;DHT22;4669;49.594;10.958;2023-09-19T09:49:24;19.00;99.00
9265;DHT22;4669;49.594;10.958;2023-09-19T09:54:28;19.00;98.30
9265;DHT22;4669;49.594;10.958;2023-09-19T09:59:50;19.10;97.90
9265;DHT22;4669;49.594;10.958;2023-09-19T10:04:54;19.10;98.30
9265;DHT22;4669;49.594;10.958;2023-09-19T10:10:15;19.30;98.50
9265;DHT22;4669;49.594;10.958;2023-09-19T10:15:32;19.40;98.00
9265;DHT22;4669;49.594;10.958;2023-09-19T10:20:36;19.40;97.90
9265;DHT22;4669;49.594;10.958;2023-09-19T10:25:41;19.50;97.60
9265;DHT22;4669;49.594;10.958;2023-09-19T10:30:46;19.40;97.10
9265;DHT22;4669;49.594;10.958;2023-09-19T10:35:50;19.40;97.20
9265;DHT22;4669;49.594;10.958;2023-09-19T10:40:54;19.30;97.30
9265;DHT22;4669;49.594;10.958;2023-09-19T10:46:01;19.30;97.20
9265;DHT22;4669;49.594;10.958;2023-09-19T10:51:07;19.30;97.20
9265;DHT22;4669;49.594;10.958;2023-09-19T10:56:11;19.40;97.70
9265;DHT22;4669;49.594;10.958;2023-09-19T11:01:19;19.50;97.50
9265;DHT22;4669;49.594;10.958;2023-09-19T11:06:22;19.60;97.10
9265;DHT22;4669;49.594;10.958;2023-09-19T11:11:43;19.70;96.30
9265;DHT22;4669;49.594;10.958;2023-09-19T11:28:31;20.00;94.60
9265;DHT22;4669;49.594;10.958;2023-09-19T11:33:34;20.00;94.50
9265;DHT22;4669;49.594;10.958;2023-09-19T11:38:59;20.00;94.50
9265;DHT22;4669;49.594;10.958;2023-09-19T11:44:32;20.00;94.70
9265;DHT22;4669;49.594;10.958;2023-09-19T11:49:35;20.10;94.60
9265;DHT22;4669;49.594;10.958;2023-09-19T11:54:44;20.20;94.30
9265;DHT22;4669;49.594;10.958;2023-09-19T11:59:52;20.30;94.60
9265;DHT22;4669;49.594;10.958;2023-09-19T12:04:55;20.20;94.70
9265;DHT22;4669;49.594;10.958;2023-09-19T12:10:05;20.10;95.20
9265;DHT22;4669;49.594;10.958;2023-09-19T12:15:12;20.20;95.30
9265;DHT22;4669;49.594;10.958;2023-09-19T12:20:15;20.40;94.20
9265;DHT22;4669;49.594;10.958;2023-09-19T12:25:19;20.40;94.20
9265;DHT22;4669;49.594;10.958;2023-09-19T12:30:27;20.50;93.50
9265;DHT22;4669;49.594;10.958;2023-09-19T12:35:34;20.50;92.70
9265;DHT22;4669;49.594;10.958;2023-09-19T12:40:37;20.60;92.30
9265;DHT22;4669;49.594;10.958;2023-09-19T12:45:43;20.70;91.50
9265;DHT22;4669;49.594;10.958;2023-09-19T12:51:02;20.80;91.40
9265;DHT22;4669;49.594;10.958;2023-09-19T12:56:08;20.70;91.40
9265;DHT22;4669;49.594;10.958;2023-09-19T13:01:14;20.60;91.80
9265;DHT22;4669;49.594;10.958;2023-09-19T13:06:16;20.60;91.50
9265;DHT22;4669;49.594;10.958;2023-09-19T13:11:22;20.70;91.70
9265;DHT22;4669;49.594;10.958;2023-09-19T13:16:23;20.80;91.20
9265;DHT22;4669;49.594;10.958;2023-09-19T13:21:30;20.80;91.40
9265;DHT22;4669;49.594;10.958;2023-09-19T13:26:39;20.80;91.30
9265;DHT22;4669;49.594;10.958;2023-09-19T13:31:41;20.80;91.40
9265;DHT22;4669;49.594;10.958;2023-09-19T13:36:44;20.90;91.80
9265;DHT22;4669;49.594;10.958;2023-09-19T13:41:48;21.20;91.80
9265;DHT22;4669;49.594;10.958;2023-09-19T13:46:50;21.40;91.00
9265;DHT22;4669;49.594;10.958;2023-09-19T13:51:52;21.30;91.30
9265;DHT22;4669;49.594;10.958;2023-09-19T13:56:56;21.50;91.00
9265;DHT22;4669;49.594;10.958;2023-09-19T14:01:58;21.60;91.00
9265;DHT22;4669;49.594;10.958;2023-09-19T14:07:00;21.60;91.30
9265;DHT22;4669;49.594;10.958;2023-09-19T14:12:04;21.90;90.40
9265;DHT22;4669;49.594;10.958;2023-09-19T14:17:06;22.10;90.70
9265;DHT22;4669;49.594;10.958;2023-09-19T14:22:10;22.30;90.50
9265;DHT22;4669;49.594;10.958;2023-09-19T14:27:13;22.30;90.50
9265;DHT22;4669;49.594;10.958;2023-09-19T14:32:15;22.50;90.70
9265;DHT22;4669;49.594;10.958;2023-09-19T14:37:17;22.70;90.10
9265;DHT22;4669;49.594;10.958;2023-09-19T14:42:23;22.70;89.60
9265;DHT22;4669;49.594;10.958;2023-09-19T14:47:25;22.60;90.00
9265;DHT22;4669;49.594;10.958;2023-09-19T14:52:28;22.60;89.60
9265;DHT22;4669;49.594;10.958;2023-09-19T14:57:31;22.40;88.80
9265;DHT22;4669;49.594;10.958;2023-09-19T15:02:33;22.30;89.50
9265;DHT22;4669;49.594;10.958;2023-09-19T15:07:36;22.30;89.70
9265;DHT22;4669;49.594;10.958;2023-09-19T15:12:39;22.20;90.00
9265;DHT22;4669;49.594;10.958;2023-09-19T15:17:41;22.20;89.60
9265;DHT22;4669;49.594;10.958;2023-09-19T15:22:44;22.20;90.10
9265;DHT22;4669;49.594;10.958;2023-09-19T15:27:48;22.10;88.50
9265;DHT22;4669;49.594;10.958;2023-09-19T15:32:50;22.10;89.30
9265;DHT22;4669;49.594;10.958;2023-09-19T15:37:52;22.00;89.60
9265;DHT22;4669;49.594;10.958;2023-09-19T15:42:58;21.80;90.40
9265;DHT22;4669;49.594;10.958;2023-09-19T15:48:00;21.70;90.30
9265;DHT22;4669;49.594;10.958;2023-09-19T15:53:03;21.60;90.80
9265;DHT22;4669;49.594;10.958;2023-09-19T15:58:07;21.60;90.00
9265;DHT22;4669;49.594;10.958;2023-09-19T16:03:09;21.50;90.10
9265;DHT22;4669;49.594;10.958;2023-09-19T16:08:11;21.40;89.80
9265;DHT22;4669;49.594;10.958;2023-09-19T16:13:14;21.30;90.40
9265;DHT22;4669;49.594;10.958;2023-09-19T16:18:16;21.20;90.70
9265;DHT22;4669;49.594;10.958;2023-09-19T16:23:18;21.10;90.70
9265;DHT22;4669;49.594;10.958;2023-09-19T16:28:21;21.10;90.90
9265;DHT22;4669;49.594;10.958;2023-09-19T16:33:23;21.00;90.90
9265;DHT22;4669;49.594;10.958;2023-09-19T16:38:26;20.90;91.30
9265;DHT22;4669;49.594;10.958;2023-09-19T16:43:31;20.70;91.70
9265;DHT22;4669;49.594;10.958;2023-09-19T16:48:34;20.70;91.70
9265;DHT22;4669;49.594;10.958;2023-09-19T16:53:37;20.60;92.00
9265;DHT22;4669;49.594;10.958;2023-09-19T16:58:42;20.40;92.40
9265;DHT22;4669;49.594;10.958;2023-09-19T17:03:44;20.40;92.60
9265;DHT22;4669;49.594;10.958;2023-09-19T17:08:47;20.30;92.60
9265;DHT22;4669;49.594;10.958;2023-09-19T17:13:51;20.20;92.60
9265;DHT22;4669;49.594;10.958;2023-09-19T17:18:55;20.10;92.80
9265;DHT22;4669;49.594;10.958;2023-09-19T17:23:57;20.10;93.10
9265;DHT22;4669;49.594;10.958;2023-09-19T17:29:01;20.00;93.60
9265;DHT22;4669;49.594;10.958;2023-09-19T17:34:03;19.90;93.90
9265;DHT22;4669;49.594;10.958;2023-09-19T17:39:05;19.90;94.60
9265;DHT22;4669;49.594;10.958;2023-09-19T17:44:12;19.80;94.60
9265;DHT22;4669;49.594;10.958;2023-09-19T17:49:14;19.80;94.90
9265;DHT22;4669;49.594;10.958;2023-09-19T17:54:17;19.70;95.20
9265;DHT22;4669;49.594;10.958;2023-09-19T17:59:20;19.60;95.30
9265;DHT22;4669;49.594;10.958;2023-09-19T18:04:23;19.50;95.40
9265;DHT22;4669;49.594;10.958;2023-09-19T18:09:25;19.40;95.40
9265;DHT22;4669;49.594;10.958;2023-09-19T18:14:28;19.30;95.50
9265;DHT22;4669;49.594;10.958;2023-09-19T18:19:34;19.20;95.70
9265;DHT22;4669;49.594;10.958;2023-09-19T18:24:36;19.20;95.60
9265;DHT22;4669;49.594;10.958;2023-09-19T18:29:39;19.10;95.90
9265;DHT22;4669;49.594;10.958;2023-09-19T18:34:44;19.10;95.70
9265;DHT22;4669;49.594;10.958;2023-09-19T18:39:46;19.00;96.00
9265;DHT22;4669;49.594;10.958;2023-09-19T18:44:50;19.00;95.90
9265;DHT22;4669;49.594;10.958;2023-09-19T18:49:52;18.90;96.10
9265;DHT22;4669;49.594;10.958;2023-09-19T18:54:54;18.90;96.50
9265;DHT22;4669;49.594;10.958;2023-09-19T18:59:58;18.80;96.40
9265;DHT22;4669;49.594;10.958;2023-09-19T19:05:00;18.70;96.50
9265;DHT22;4669;49.594;10.958;2023-09-19T19:10:02;18.70;96.70
9265;DHT22;4669;49.594;10.958;2023-09-19T19:15:08;18.60;96.70
9265;DHT22;4669;49.594;10.958;2023-09-19T19:20:11;18.60;96.90
9265;DHT22;4669;49.594;10.958;2023-09-19T19:25:14;18.50;97.10
9265;DHT22;4669;49.594;10.958;2023-09-19T19:30:18;18.40;97.30
9265;DHT22;4669;49.594;10.958;2023-09-19T19:35:20;18.40;97.60
9265;DHT22;4669;49.594;10.958;2023-09-19T19:40:22;18.40;97.70
9265;DHT22;4669;49.594;10.958;2023-09-19T19:45:26;18.40;97.90
9265;DHT22;4669;49.594;10.958;2023-09-19T19:50:29;18.30;98.00
9265;DHT22;4669;49.594;10.958;2023-09-19T19:55:32;18.30;98.00
9265;DHT22;4669;49.594;10.958;2023-09-19T20:00:36;18.20;98.10
9265;DHT22;4669;49.594;10.958;2023-09-19T20:05:39;18.20;98.10
9265;DHT22;4669;49.594;10.958;2023-09-19T20:10:42;18.20;98.40
9265;DHT22;4669;49.594;10.958;2023-09-19T20:15:54;18.10;98.50
9265;DHT22;4669;49.594;10.958;2023-09-19T20:20:56;18.00;98.60
9265;DHT22;4669;49.594;10.958;2023-09-19T20:26:01;18.00;98.70
9265;DHT22;4669;49.594;10.958;2023-09-19T20:31:07;17.90;98.80
9265;DHT22;4669;49.594;10.958;2023-09-19T20:36:09;17.90;99.00
9265;DHT22;4669;49.594;10.958;2023-09-19T20:41:14;17.80;99.00
9265;DHT22;4669;49.594;10.958;2023-09-19T20:46:18;17.80;99.20
9265;DHT22;4669;49.594;10.958;2023-09-19T20:51:20;17.80;99.50
9265;DHT22;4669;49.594;10.958;2023-09-19T20:56:26;17.70;99.60
9265;DHT22;4669;49.594;10.958;2023-09-19T21:01:32;17.70;99.70
9265;DHT22;4669;49.594;10.958;2023-09-19T21:06:35;17.60;99.80
9265;DHT22;4669;49.594;10.958;2023-09-19T21:11:37;17.60;99.90
9265;DHT22;4669;49.594;10.958;2023-09-19T21:16:41;17.50;99.90
9265;DHT22;4669;49.594;10.958;2023-09-19T21:21:43;17.50;99.90
9265;DHT22;4669;49.594;10.958;2023-09-19T21:26:46;17.50;99.90
9265;DHT22;4669;49.594;10.958;2023-09-19T21:31:50;17.40;99.90
9265;DHT22;4669;49.594;10.958;2023-09-19T21:36:52;17.30;99.90
9265;DHT22;4669;49.594;10.958;2023-09-19T21:41:54;17.40;99.90
9265;DHT22;4669;49.594;10.958;2023-09-19T21:46:57;17.50;99.90
9265;DHT22;4669;49.594;10.958;2023-09-19T21:52:01;17.50;99.90
9265;DHT22;4669;49.594;10.958;2023-09-19T21:57:03;17.40;99.90
